Time;durP1;ratioP1;P1;durP2;ratioP2;P2;SDS_P1;SDS_P2;PMS_P1;PMS_P2;Temp;Humidity;BMP_temperature;BMP_pressure;BME280_temperature;BME280_humidity;BME280_pressure;Samples;Min_cycle;Max_cycle;Signal;HPM_P1;HPM_P2
2023/09/07 00:01:29;;;;;;;7.32;4.30;;;;;;;30.27;41.42;101998.50;5074928;28;20537;-71
2023/09/07 00:03:55;;;;;;;5.13;3.65;;;;;;;30.19;41.79;101990.97;5071047;28;20052;-70
2023/09/07 00:06:20;;;;;;;6.80;4.50;;;;;;;30.47;41.00;101988.91;5067068;28;20028;-70
2023/09/07 00:08:46;;;;;;;9.73;4.78;;;;;;;30.26;41.72;101992.22;5086202;28;20054;-70
2023/09/07 00:11:11;;;;;;;6.60;4.45;;;;;;;30.14;41.81;101985.06;5087268;28;20058;-70
2023/09/07 00:13:37;;;;;;;9.88;4.40;;;;;;;30.40;41.80;101982.22;5088104;28;20125;-70
2023/09/07 00:16:03;;;;;;;6.40;4.40;;;;;;;30.12;42.33;101987.03;5088032;28;20110;-70
2023/09/07 00:18:30;;;;;;;7.07;4.20;;;;;;;30.23;41.20;101981.69;5079831;28;20036;-71
2023/09/07 00:20:55;;;;;;;5.97;5.03;;;;;;;30.52;40.95;101986.72;5067634;28;20053;-70
2023/09/07 00:23:21;;;;;;;8.48;5.15;;;;;;;29.86;42.02;101978.22;5069442;28;20396;-70
2023/09/07 00:25:47;;;;;;;7.13;4.57;;;;;;;30.32;41.09;101980.09;5067976;28;20495;-70
2023/09/07 00:28:13;;;;;;;6.95;4.88;;;;;;;29.97;42.09;101986.34;5066818;28;20035;-70
2023/09/07 00:30:39;;;;;;;7.18;4.57;;;;;;;30.21;41.61;101978.25;5066874;28;20212;-71
2023/09/07 00:33:05;;;;;;;7.75;5.07;;;;;;;30.26;41.19;101986.84;5067853;28;20047;-69
2023/09/07 00:35:30;;;;;;;8.27;4.85;;;;;;;30.12;41.37;101984.34;5067324;28;20024;-70
2023/09/07 00:37:56;;;;;;;6.97;4.90;;;;;;;30.08;42.15;101988.25;5083972;28;20036;-70
2023/09/07 00:40:22;;;;;;;7.15;4.80;;;;;;;30.19;42.05;101980.19;5088220;28;20016;-70
2023/09/07 00:42:47;;;;;;;6.63;4.70;;;;;;;30.11;41.67;101977.22;5091799;28;20024;-70
2023/09/07 00:45:13;;;;;;;5.97;4.40;;;;;;;29.93;41.89;101982.16;5090583;28;20032;-69
2023/09/07 00:47:39;;;;;;;7.85;4.45;;;;;;;29.64;42.49;101984.28;5084361;28;20388;-70
2023/09/07 00:50:05;;;;;;;6.45;4.85;;;;;;;29.85;42.25;101977.34;5083700;28;20025;-70
2023/09/07 00:52:32;;;;;;;12.80;5.55;;;;;;;29.77;42.78;101980.59;5072319;28;20375;-70
2023/09/07 00:54:58;;;;;;;6.68;4.82;;;;;;;29.25;43.46;101982.53;5072625;28;20534;-70
2023/09/07 00:57:24;;;;;;;8.48;5.22;;;;;;;29.49;43.06;101976.34;5074447;28;20027;-70
2023/09/07 00:59:50;;;;;;;7.38;4.57;;;;;;;29.64;43.38;101978.91;5090042;28;20077;-70
2023/09/07 01:02:15;;;;;;;6.60;4.75;;;;;;;29.56;43.27;101972.22;5053969;28;20463;-70
2023/09/07 01:04:42;;;;;;;9.18;5.47;;;;;;;29.58;42.91;101973.00;5036805;28;20155;-70
2023/09/07 01:07:17;;;;;;;8.25;5.05;;;;;;;29.42;43.50;101965.16;5034331;28;20025;-70
2023/09/07 01:09:44;;;;;;;8.88;5.53;;;;;;;29.41;43.20;101959.88;5049899;28;20028;-70
2023/09/07 01:12:16;;;;;;;6.45;4.72;;;;;;;29.36;43.60;101965.63;5046942;28;20093;-70
2023/09/07 01:14:42;;;;;;;7.72;4.78;;;;;;;29.76;42.53;101967.22;5053881;28;20031;-70
2023/09/07 01:17:09;;;;;;;7.78;5.15;;;;;;;29.80;42.14;101966.03;5071487;28;20062;-70
2023/09/07 01:19:35;;;;;;;5.72;4.38;;;;;;;29.65;42.61;101961.75;5052013;28;20524;-70
2023/09/07 01:22:01;;;;;;;6.22;4.53;;;;;;;29.65;42.79;101976.09;5053494;28;20036;-70
2023/09/07 01:24:29;;;;;;;8.10;5.47;;;;;;;29.62;42.73;101970.91;5070384;28;20472;-69
2023/09/07 01:26:56;;;;;;;11.00;6.40;;;;;;;29.27;43.28;101967.13;5071134;28;20035;-70
2023/09/07 01:29:22;;;;;;;8.18;5.47;;;;;;;29.26;43.70;101965.44;5053320;28;20025;-70
2023/09/07 01:31:48;;;;;;;7.50;5.75;;;;;;;29.21;43.30;101964.84;5070047;28;20122;-70
2023/09/07 01:34:14;;;;;;;7.40;5.13;;;;;;;29.12;43.83;101965.50;5059343;28;20033;-70
2023/09/07 01:36:40;;;;;;;8.73;5.28;;;;;;;29.15;43.56;101954.50;5053816;28;20024;-70
2023/09/07 01:39:06;;;;;;;11.52;5.75;;;;;;;29.01;44.18;101954.66;5053384;28;20067;-71
2023/09/07 01:41:33;;;;;;;8.75;5.35;;;;;;;29.02;44.24;101956.38;5049549;28;20024;-70
2023/09/07 01:43:58;;;;;;;8.10;4.93;;;;;;;29.39;43.43;101948.38;5070114;28;20033;-71
2023/09/07 01:46:24;;;;;;;7.43;4.60;;;;;;;29.27;43.40;101955.50;5069541;28;20037;-70
2023/09/07 01:48:49;;;;;;;7.15;4.65;;;;;;;29.14;43.48;101960.88;5041107;28;20029;-70
2023/09/07 01:51:14;;;;;;;6.07;4.60;;;;;;;29.16;43.66;101956.25;5053953;28;20036;-70
2023/09/07 01:53:40;;;;;;;8.40;5.68;;;;;;;28.85;44.30;101950.38;5052996;28;20029;-71
2023/09/07 01:56:05;;;;;;;7.20;5.28;;;;;;;29.00;43.96;101956.47;5069977;28;20094;-71
2023/09/07 01:58:31;;;;;;;9.68;5.65;;;;;;;28.68;44.60;101956.06;5053033;28;20048;-70
2023/09/07 02:00:57;;;;;;;8.07;5.75;;;;;;;28.78;44.57;101959.81;5068726;28;20040;-70
2023/09/07 02:03:23;;;;;;;9.07;5.50;;;;;;;28.94;44.64;101955.06;5047496;28;20059;-71
2023/09/07 02:05:48;;;;;;;8.98;5.95;;;;;;;29.12;44.10;101946.66;5045449;28;20108;-70
2023/09/07 02:08:14;;;;;;;9.25;5.30;;;;;;;29.13;44.00;101958.28;5048487;28;20055;-70
2023/09/07 02:10:39;;;;;;;7.50;4.95;;;;;;;28.99;43.61;101961.97;5050850;28;20477;-70
2023/09/07 02:13:05;;;;;;;8.38;5.45;;;;;;;28.85;44.18;101955.75;5032794;28;20444;-71
2023/09/07 02:15:31;;;;;;;8.90;6.40;;;;;;;28.85;44.41;101963.81;5034785;28;20059;-70
2023/09/07 02:17:56;;;;;;;8.18;5.63;;;;;;;28.35;45.21;101968.13;5034820;28;20044;-70
2023/09/07 02:20:22;;;;;;;9.57;5.80;;;;;;;28.82;44.47;101960.47;5051497;28;20036;-71
2023/09/07 02:22:47;;;;;;;9.45;6.07;;;;;;;28.74;44.75;101964.56;5046946;28;20107;-70
2023/09/07 02:25:13;;;;;;;10.95;6.60;;;;;;;28.75;44.70;101962.72;5031999;28;20469;-70
2023/09/07 02:27:38;;;;;;;10.77;5.75;;;;;;;28.71;45.07;101964.75;5043487;28;20028;-71
2023/09/07 02:30:04;;;;;;;9.35;6.28;;;;;;;28.79;44.43;101961.53;5052226;28;20394;-70
2023/09/07 02:32:31;;;;;;;11.00;6.82;;;;;;;28.83;44.30;101963.03;5032617;28;20109;-71
2023/09/07 02:34:57;;;;;;;10.27;6.35;;;;;;;28.86;44.80;101956.59;5069576;28;20024;-71
2023/09/07 02:37:23;;;;;;;10.93;6.47;;;;;;;28.65;45.04;101958.97;5067382;28;20503;-71
2023/09/07 02:39:48;;;;;;;9.40;6.65;;;;;;;28.70;44.95;101951.41;5052370;28;20123;-70
2023/09/07 02:42:14;;;;;;;10.23;6.93;;;;;;;28.55;44.98;101947.91;5069723;28;20032;-70
2023/09/07 02:44:39;;;;;;;10.52;6.15;;;;;;;28.50;45.22;101967.06;5051864;28;20484;-70
2023/09/07 02:47:05;;;;;;;9.23;5.90;;;;;;;28.39;45.21;101958.88;5055774;28;20595;-71
2023/09/07 02:49:30;;;;;;;13.77;6.63;;;;;;;28.38;45.85;101957.16;5051944;28;20102;-71
2023/09/07 02:51:56;;;;;;;15.27;6.93;;;;;;;28.31;45.54;101963.91;5051486;28;20040;-70
2023/09/07 02:54:22;;;;;;;10.93;6.25;;;;;;;27.82;46.39;101971.56;5047481;28;20063;-70
2023/09/07 02:56:48;;;;;;;10.52;6.68;;;;;;;28.32;45.87;101969.19;5032707;28;20098;-70
2023/09/07 02:59:14;;;;;;;10.32;6.85;;;;;;;28.22;45.57;101963.59;5069492;28;20472;-71
2023/09/07 03:01:39;;;;;;;10.35;7.50;;;;;;;28.43;45.51;101966.63;5080140;28;20408;-71
2023/09/07 03:04:05;;;;;;;12.50;6.65;;;;;;;28.24;45.54;101972.38;5081369;28;20072;-70
2023/09/07 03:06:31;;;;;;;9.50;5.97;;;;;;;28.55;45.19;101964.06;5086734;28;20275;-71
2023/09/07 03:08:57;;;;;;;10.38;7.20;;;;;;;28.49;45.26;101969.88;5089491;28;20032;-72
2023/09/07 03:11:22;;;;;;;12.27;6.95;;;;;;;28.61;44.63;101960.97;5087515;28;20031;-72
2023/09/07 03:13:48;;;;;;;11.63;7.15;;;;;;;28.34;45.17;101961.88;5088372;28;20023;-72
2023/09/07 03:16:13;;;;;;;11.55;6.38;;;;;;;28.45;45.22;101966.53;5086876;28;20097;-72
2023/09/07 03:18:38;;;;;;;10.73;6.40;;;;;;;28.42;45.61;101964.91;5085293;28;20119;-72
2023/09/07 03:21:04;;;;;;;9.50;6.70;;;;;;;28.40;45.16;101966.00;5069617;28;20029;-72
2023/09/07 03:23:31;;;;;;;11.00;7.15;;;;;;;28.00;46.29;101968.66;5083000;28;20490;-72
2023/09/07 03:25:58;;;;;;;10.50;6.68;;;;;;;28.15;45.74;101970.34;5087963;28;20028;-72
2023/09/07 03:28:24;;;;;;;10.90;6.93;;;;;;;28.11;46.21;101963.44;5074417;28;20033;-72
2023/09/07 03:30:50;;;;;;;11.68;7.13;;;;;;;28.06;45.79;101962.88;5068256;28;20024;-72
2023/09/07 03:33:16;;;;;;;9.30;5.90;;;;;;;27.81;46.69;101953.72;5066624;28;20039;-72
2023/09/07 03:35:41;;;;;;;12.75;8.10;;;;;;;27.74;46.85;101963.16;5068133;28;20103;-72
2023/09/07 03:38:07;;;;;;;11.20;7.30;;;;;;;27.87;46.63;101966.75;5078680;28;20032;-72
2023/09/07 03:40:32;;;;;;;12.45;7.55;;;;;;;28.09;46.29;101962.66;5087285;28;20557;-72
2023/09/07 03:42:57;;;;;;;10.23;6.78;;;;;;;27.81;46.71;101964.47;5088229;28;20016;-72
2023/09/07 03:45:23;;;;;;;12.32;7.57;;;;;;;27.71;46.50;101974.97;5082736;28;20111;-72
2023/09/07 03:47:49;;;;;;;11.07;7.65;;;;;;;27.98;46.20;101959.81;5080624;28;20028;-71
2023/09/07 03:50:14;;;;;;;13.27;8.25;;;;;;;27.91;46.15;101957.50;5079785;28;20025;-72
2023/09/07 03:52:40;;;;;;;13.10;7.32;;;;;;;27.94;46.49;101959.16;5069556;28;20056;-72
2023/09/07 03:55:06;;;;;;;14.82;8.38;;;;;;;27.67;47.12;101956.44;5068539;28;20594;-71
2023/09/07 03:57:31;;;;;;;15.43;8.65;;;;;;;27.47;47.33;101961.28;5068159;28;20036;-72
2023/09/07 03:59:57;;;;;;;11.98;7.35;;;;;;;27.96;46.46;101961.72;5066112;28;20047;-71
2023/09/07 04:02:23;;;;;;;12.93;8.30;;;;;;;27.63;47.00;101961.16;5038122;28;20447;-72
2023/09/07 04:04:53;;;;;;;13.45;7.85;;;;;;;27.76;46.82;101962.06;5050503;28;20242;-69
2023/09/07 04:07:18;;;;;;;10.82;8.02;;;;;;;27.80;46.58;101968.13;5063403;28;20021;-68
2023/09/07 04:09:44;;;;;;;14.30;8.05;;;;;;;27.99;46.09;101957.03;5038512;28;20021;-69
2023/09/07 04:12:11;;;;;;;14.18;7.97;;;;;;;28.24;45.85;101961.63;5049573;28;20468;-69
2023/09/07 04:14:37;;;;;;;12.35;8.07;;;;;;;28.18;45.84;101967.44;5050699;28;20028;-69
2023/09/07 04:17:03;;;;;;;13.20;8.23;;;;;;;28.05;46.31;101966.53;5052343;28;20071;-69
2023/09/07 04:19:28;;;;;;;14.82;9.07;;;;;;;28.00;46.25;101965.97;5054721;28;20044;-69
2023/09/07 04:21:54;;;;;;;12.52;8.13;;;;;;;27.41;47.13;101972.44;5053229;28;20070;-70
2023/09/07 04:24:19;;;;;;;16.05;8.70;;;;;;;27.80;46.63;101978.84;5054441;28;20025;-70
2023/09/07 04:26:44;;;;;;;14.52;8.60;;;;;;;27.69;46.31;101970.66;5055014;28;20017;-70
2023/09/07 04:29:12;;;;;;;17.15;9.35;;;;;;;27.79;46.16;101974.44;5050382;28;20060;-70
2023/09/07 04:31:38;;;;;;;13.02;8.20;;;;;;;27.74;46.72;101968.53;5036632;28;20029;-70
2023/09/07 04:34:03;;;;;;;13.68;7.60;;;;;;;27.69;46.90;101970.66;5055126;28;20032;-69
2023/09/07 04:36:29;;;;;;;19.20;8.60;;;;;;;27.55;47.10;101975.06;5035421;28;20039;-71
2023/09/07 04:38:54;;;;;;;13.65;7.97;;;;;;;27.54;46.96;101978.72;5034581;28;20061;-70
2023/09/07 04:41:20;;;;;;;13.27;8.57;;;;;;;27.50;47.42;101977.19;5050742;28;20024;-70
2023/09/07 04:43:45;;;;;;;15.68;8.57;;;;;;;27.26;47.19;101983.13;5053420;28;20031;-70
2023/09/07 04:46:14;;;;;;;16.20;8.90;;;;;;;27.59;46.96;101981.97;5052356;28;20403;-70
2023/09/07 04:48:41;;;;;;;13.73;8.60;;;;;;;27.45;47.02;101984.69;5054177;28;20028;-71
2023/09/07 04:51:07;;;;;;;18.02;8.77;;;;;;;27.46;47.56;101988.22;5066865;28;20039;-70
2023/09/07 04:53:34;;;;;;;13.90;8.65;;;;;;;27.55;47.04;101980.44;5042195;28;20384;-71
2023/09/07 04:56:01;;;;;;;12.38;8.45;;;;;;;27.30;47.58;101980.25;5053778;28;20029;-70
2023/09/07 04:58:27;;;;;;;15.23;8.68;;;;;;;27.02;48.04;101981.97;5062056;28;20036;-71
2023/09/07 05:00:53;;;;;;;15.30;9.70;;;;;;;27.24;47.46;101977.00;5068637;28;20134;-70
2023/09/07 05:03:18;;;;;;;14.43;8.75;;;;;;;27.32;47.74;101978.34;5088535;28;20020;-70
2023/09/07 05:05:44;;;;;;;12.10;8.25;;;;;;;27.06;47.97;101980.81;5087209;28;20028;-71
2023/09/07 05:08:11;;;;;;;15.80;8.85;;;;;;;27.42;47.45;101982.19;5072054;28;20043;-70
2023/09/07 05:10:38;;;;;;;13.43;9.00;;;;;;;27.18;47.84;101982.75;5086110;28;20158;-70
2023/09/07 05:13:03;;;;;;;16.48;8.77;;;;;;;26.91;48.20;101991.56;5078829;28;20117;-70
2023/09/07 05:15:29;;;;;;;18.48;9.02;;;;;;;26.98;47.92;101991.16;5071982;28;20055;-71
2023/09/07 05:17:55;;;;;;;14.05;8.30;;;;;;;27.04;48.13;101990.81;5076629;28;20067;-70
2023/09/07 05:20:21;;;;;;;12.82;7.97;;;;;;;27.02;47.72;101995.38;5070117;28;20024;-70
2023/09/07 05:22:46;;;;;;;14.85;9.18;;;;;;;27.25;47.30;101993.97;5079714;28;20040;-70
2023/09/07 05:25:12;;;;;;;15.20;8.93;;;;;;;27.22;47.58;102000.38;5089489;28;20028;-70
2023/09/07 05:27:38;;;;;;;16.17;8.73;;;;;;;27.11;47.68;101999.31;5090306;28;20036;-70
2023/09/07 05:30:05;;;;;;;12.77;8.45;;;;;;;27.34;47.31;101992.50;5090862;28;20031;-70
2023/09/07 05:32:31;;;;;;;13.43;8.77;;;;;;;27.24;47.36;102002.97;5090162;28;20031;-69
2023/09/07 05:34:56;;;;;;;14.05;9.10;;;;;;;27.37;46.73;101995.06;5091927;28;20373;-70
2023/09/07 05:37:21;;;;;;;13.93;8.73;;;;;;;27.33;47.46;101996.19;5072448;28;20493;-70
2023/09/07 05:39:48;;;;;;;16.55;7.95;;;;;;;27.38;46.93;101994.97;5074175;28;20434;-69
2023/09/07 05:42:14;;;;;;;13.38;8.43;;;;;;;27.12;47.46;101999.25;5090254;28;20476;-70
2023/09/07 05:44:39;;;;;;;13.88;7.70;;;;;;;27.26;47.55;101990.31;5086688;28;20039;-70
2023/09/07 05:47:05;;;;;;;13.18;8.32;;;;;;;26.78;48.41;101990.56;5088209;28;20061;-70
2023/09/07 05:49:31;;;;;;;14.85;8.40;;;;;;;27.04;47.78;101996.19;5088922;28;20460;-69
2023/09/07 05:51:56;;;;;;;13.65;8.30;;;;;;;27.25;47.36;101997.50;5070174;28;20024;-70
2023/09/07 05:54:22;;;;;;;15.80;8.00;;;;;;;26.86;48.33;101988.28;5068516;28;20103;-70
2023/09/07 05:56:47;;;;;;;12.25;7.72;;;;;;;27.34;46.94;102000.56;5078430;28;20138;-70
2023/09/07 05:59:13;;;;;;;16.65;8.32;;;;;;;27.24;47.34;101998.47;5076669;28;20036;-70
2023/09/07 06:01:39;;;;;;;12.93;8.05;;;;;;;27.57;47.04;102010.75;5068128;28;20261;-69
2023/09/07 06:04:05;;;;;;;17.65;9.27;;;;;;;27.59;46.45;102011.50;5071135;28;20024;-70
2023/09/07 06:06:31;;;;;;;15.90;8.40;;;;;;;27.17;47.58;102013.22;5044958;28;20032;-70
2023/09/07 06:08:58;;;;;;;12.57;7.63;;;;;;;27.68;46.39;102011.88;5034991;28;20031;-70
2023/09/07 06:11:24;;;;;;;13.82;8.13;;;;;;;27.83;46.19;102016.25;5036267;28;20313;-70
2023/09/07 06:13:50;;;;;;;13.82;8.55;;;;;;;27.79;46.40;102013.88;5067530;28;20541;-71
2023/09/07 06:16:15;;;;;;;17.08;8.65;;;;;;;27.65;46.79;102012.09;5050858;28;20020;-70
2023/09/07 06:18:40;;;;;;;13.40;8.10;;;;;;;27.91;46.06;102024.69;5042009;28;20056;-71
2023/09/07 06:21:06;;;;;;;13.18;6.65;;;;;;;27.99;45.96;102026.03;5043097;28;20119;-70
2023/09/07 06:23:31;;;;;;;17.25;8.35;;;;;;;27.80;46.69;102026.34;5067938;28;20042;-69
2023/09/07 06:25:57;;;;;;;12.23;7.35;;;;;;;27.64;46.92;102021.09;5053016;28;20029;-70
2023/09/07 06:28:22;;;;;;;15.25;7.95;;;;;;;27.84;46.23;102028.72;5033622;28;20067;-70
2023/09/07 06:30:48;;;;;;;15.05;8.40;;;;;;;27.99;46.12;102026.03;5036973;28;20031;-70
2023/09/07 06:33:13;;;;;;;13.30;8.05;;;;;;;28.07;46.24;102032.66;5044843;28;20079;-70
2023/09/07 06:35:39;;;;;;;16.17;9.05;;;;;;;27.56;47.38;102035.88;5051862;28;20098;-70
2023/09/07 06:38:05;;;;;;;12.88;8.40;;;;;;;28.02;46.21;102037.44;5045102;28;20110;-70
2023/09/07 06:40:30;;;;;;;11.57;7.80;;;;;;;28.11;46.35;102038.69;5032561;28;20033;-71
2023/09/07 06:42:56;;;;;;;11.90;7.68;;;;;;;27.95;46.83;102037.94;5040095;28;20399;-70
2023/09/07 06:45:23;;;;;;;16.05;8.20;;;;;;;27.73;47.62;102031.25;5052082;28;20078;-70
2023/09/07 06:47:50;;;;;;;14.45;8.18;;;;;;;28.29;45.98;102027.66;5053391;28;20491;-70
2023/09/07 06:50:16;;;;;;;12.00;7.07;;;;;;;28.47;45.88;102020.19;5044531;28;20140;-70
2023/09/07 06:52:41;;;;;;;16.77;7.95;;;;;;;28.44;45.62;102016.75;5032160;28;20552;-70
2023/09/07 06:55:06;;;;;;;12.57;7.63;;;;;;;27.99;47.14;102020.66;5048712;28;20074;-70
2023/09/07 06:57:33;;;;;;;13.70;8.82;;;;;;;28.16;46.85;102039.22;5036729;28;20032;-70
2023/09/07 07:00:09;;;;;;;13.02;7.97;;;;;;;28.10;46.64;102034.28;5098442;27;20124;-70
2023/09/07 07:02:34;;;;;;;11.70;8.02;;;;;;;28.77;45.72;102028.03;5089490;28;20103;-71
2023/09/07 07:05:00;;;;;;;15.90;7.30;;;;;;;28.79;45.22;102026.09;5082443;28;20127;-71
2023/09/07 07:07:25;;;;;;;11.45;7.10;;;;;;;28.55;45.62;102034.84;5087998;28;20534;-71
2023/09/07 07:09:52;;;;;;;11.68;7.45;;;;;;;28.44;45.77;102037.41;5086032;28;20035;-70
2023/09/07 07:12:18;;;;;;;14.13;7.45;;;;;;;28.75;45.34;102036.19;5070435;28;20032;-70
2023/09/07 07:14:44;;;;;;;12.15;7.85;;;;;;;29.16;44.92;102034.28;5071035;28;20027;-70
2023/09/07 07:17:09;;;;;;;11.68;6.78;;;;;;;28.74;45.68;102028.22;5086909;28;20539;-71
2023/09/07 07:19:34;;;;;;;14.70;7.47;;;;;;;29.05;44.73;102028.81;5096393;28;20031;-71
2023/09/07 07:22:00;;;;;;;12.85;8.07;;;;;;;29.01;44.95;102032.69;5088016;28;20023;-70
2023/09/07 07:24:25;;;;;;;9.45;6.85;;;;;;;29.06;45.25;102033.25;5088069;28;20391;-70
2023/09/07 07:26:51;;;;;;;15.85;7.38;;;;;;;29.55;44.06;102035.16;5079441;28;20598;-70
2023/09/07 07:29:16;;;;;;;9.50;6.93;;;;;;;31.67;42.21;102034.47;5067913;28;20507;-70
2023/09/07 07:31:42;;;;;;;12.07;6.60;;;;;;;32.97;38.18;102028.09;5076277;28;20103;-70
2023/09/07 07:34:07;;;;;;;9.88;6.18;;;;;;;35.14;35.00;102028.22;5084527;28;20522;-70
2023/09/07 07:36:32;;;;;;;11.88;5.55;;;;;;;36.03;32.35;102027.81;5071317;28;20020;-70
2023/09/07 07:38:58;;;;;;;9.18;5.63;;;;;;;37.00;31.24;102028.78;5066810;28;20024;-70
2023/09/07 07:41:23;;;;;;;7.63;5.07;;;;;;;37.44;30.41;102025.09;5066444;28;20427;-71
2023/09/07 07:43:48;;;;;;;7.85;5.20;;;;;;;37.92;28.78;102028.16;5083588;28;20049;-71
2023/09/07 07:46:18;;;;;;;7.38;4.75;;;;;;;38.99;27.99;102026.28;5100279;28;20110;-71
2023/09/07 07:48:44;;;;;;;6.70;4.53;;;;;;;39.73;27.07;102018.81;5078431;28;20114;-70
2023/09/07 07:51:09;;;;;;;8.65;4.80;;;;;;;39.29;26.56;102021.06;5088257;28;20465;-70
2023/09/07 07:53:34;;;;;;;6.55;4.53;;;;;;;39.50;27.75;102020.44;5083224;28;20028;-71
2023/09/07 07:56:00;;;;;;;7.57;4.43;;;;;;;39.40;26.82;102018.97;5078900;28;20101;-69
2023/09/07 07:58:26;;;;;;;7.18;4.65;;;;;;;40.12;25.90;102017.84;5070938;28;20048;-70
2023/09/07 08:00:51;;;;;;;5.70;4.43;;;;;;;39.68;28.24;102019.34;5085810;28;20372;-70
2023/09/07 08:03:17;;;;;;;6.97;4.32;;;;;;;39.98;25.67;102014.88;5080092;28;20034;-71
2023/09/07 08:05:42;;;;;;;7.93;4.07;;;;;;;40.21;26.32;102024.97;5078593;28;20074;-71
2023/09/07 08:08:08;;;;;;;8.70;4.47;;;;;;;39.89;26.30;102021.44;5091030;28;20027;-70
2023/09/07 08:10:36;;;;;;;7.15;4.70;;;;;;;39.60;25.73;102017.53;5064111;28;20032;-70
2023/09/07 08:13:02;;;;;;;7.93;4.45;;;;;;;39.19;26.54;102009.50;5085490;28;20093;-71
2023/09/07 08:15:28;;;;;;;10.77;4.70;;;;;;;36.54;29.95;102012.63;5072110;28;20032;-70
2023/09/07 08:17:53;;;;;;;7.68;4.55;;;;;;;37.35;29.21;102005.97;5057389;28;20110;-70
2023/09/07 08:20:19;;;;;;;9.07;4.45;;;;;;;36.83;30.65;102000.59;5069787;28;20074;-70
2023/09/07 08:22:45;;;;;;;8.45;4.72;;;;;;;35.79;32.04;102012.91;5077250;28;20047;-70
2023/09/07 08:25:15;;;;;;;8.43;4.82;;;;;;;36.25;31.08;102002.84;5076183;28;20019;-71
2023/09/07 08:27:45;;;;;;;5.80;4.00;;;;;;;36.07;30.82;102004.75;5056052;28;20021;-71
2023/09/07 08:30:15;;;;;;;6.72;4.30;;;;;;;35.93;31.76;102009.69;5081982;28;20042;-70
2023/09/07 08:32:41;;;;;;;8.05;4.35;;;;;;;36.66;30.47;101989.56;5063128;28;20028;-69
2023/09/07 08:35:12;;;;;;;7.05;5.03;;;;;;;36.88;30.77;101990.09;5064714;28;20489;-70
2023/09/07 08:37:38;;;;;;;6.15;4.30;;;;;;;36.95;29.53;102003.91;5067138;28;20028;-70
2023/09/07 08:40:04;;;;;;;5.93;4.07;;;;;;;37.63;29.38;101991.25;5065210;28;20035;-71
2023/09/07 08:42:30;;;;;;;5.32;3.85;;;;;;;36.72;30.01;101992.69;5057548;28;20371;-70
2023/09/07 08:44:59;;;;;;;7.80;4.65;;;;;;;37.35;29.21;101989.63;5062856;28;20559;-69
2023/09/07 08:47:27;;;;;;;6.70;4.20;;;;;;;37.70;27.99;101989.53;5054234;28;20786;-70
2023/09/07 08:49:54;;;;;;;5.50;4.05;;;;;;;37.35;29.46;101988.78;5062587;28;20644;-70
2023/09/07 08:52:21;;;;;;;6.00;3.85;;;;;;;38.59;27.38;101989.78;5068703;28;20032;-70
2023/09/07 08:54:48;;;;;;;6.65;4.03;;;;;;;37.14;29.82;101986.47;5070273;28;20028;-69
2023/09/07 08:57:14;;;;;;;6.00;3.97;;;;;;;36.79;29.57;101983.69;5072222;28;20039;-69
2023/09/07 08:59:40;;;;;;;10.25;4.40;;;;;;;36.44;30.34;101988.22;5063355;28;20032;-69
2023/09/07 09:02:11;;;;;;;7.53;4.10;;;;;;;36.14;30.82;101989.50;5064505;28;20405;-70
2023/09/07 09:04:37;;;;;;;8.07;3.83;;;;;;;36.70;30.31;101983.78;5090878;28;20047;-70
2023/09/07 09:07:03;;;;;;;3.60;3.05;;;;;;;37.03;29.70;101982.16;5072867;28;20300;-70
2023/09/07 09:09:29;;;;;;;5.60;3.67;;;;;;;36.48;30.41;101991.50;5069043;28;20024;-70
2023/09/07 09:11:55;;;;;;;8.48;3.58;;;;;;;36.19;30.55;101987.16;5060051;28;20063;-69
2023/09/07 09:14:22;;;;;;;7.28;3.35;;;;;;;36.58;30.14;101991.41;5088918;28;20105;-69
2023/09/07 09:16:51;;;;;;;4.30;3.00;;;;;;;36.80;28.81;101981.88;5068740;28;20028;-69
2023/09/07 09:19:18;;;;;;;7.57;3.53;;;;;;;36.13;30.02;101988.63;5083473;28;20128;-69
2023/09/07 09:21:45;;;;;;;6.75;3.17;;;;;;;36.27;30.92;101987.22;5053526;28;20031;-68
2023/09/07 09:24:11;;;;;;;10.43;3.20;;;;;;;36.58;30.11;101986.78;5057297;28;20032;-68
2023/09/07 09:26:40;;;;;;;8.35;3.28;;;;;;;36.08;30.56;101987.38;5053263;28;20119;-68
2023/09/07 09:29:05;;;;;;;4.63;3.15;;;;;;;36.44;29.72;101984.66;5054892;28;20032;-68
2023/09/07 09:31:31;;;;;;;4.25;3.42;;;;;;;36.23;29.99;101988.56;5069586;28;20035;-69
2023/09/07 09:33:56;;;;;;;3.88;3.20;;;;;;;36.76;29.19;101988.63;5055497;28;20552;-69
2023/09/07 09:36:22;;;;;;;4.15;3.35;;;;;;;36.49;30.02;101987.75;5062350;28;20056;-69
2023/09/07 09:38:50;;;;;;;7.35;3.50;;;;;;;36.73;29.03;101994.41;5073566;28;20142;-69
2023/09/07 09:41:17;;;;;;;7.47;3.13;;;;;;;36.71;29.23;101993.69;5070198;28;20032;-69
2023/09/07 09:43:44;;;;;;;5.80;3.63;;;;;;;37.93;27.65;101987.06;5080946;28;20079;-69
2023/09/07 09:46:10;;;;;;;6.20;3.78;;;;;;;37.64;28.77;101982.91;5050938;28;20028;-68
2023/09/07 09:48:37;;;;;;;7.50;3.47;;;;;;;38.59;26.89;101980.75;5060540;28;20028;-68
2023/09/07 09:51:04;;;;;;;6.68;3.55;;;;;;;38.56;27.88;101981.94;5054532;28;20064;-68
2023/09/07 09:53:30;;;;;;;6.40;3.20;;;;;;;37.96;27.52;101986.75;5058336;28;20116;-68
2023/09/07 09:55:56;;;;;;;5.78;3.35;;;;;;;37.41;28.29;101979.09;5056075;28;20029;-68
2023/09/07 09:58:22;;;;;;;6.80;3.25;;;;;;;38.38;27.43;101984.03;5054375;28;20048;-68
2023/09/07 10:00:50;;;;;;;6.32;2.85;;;;;;;37.18;28.78;101982.41;5084773;28;20028;-69
2023/09/07 10:03:27;;;;;;;6.47;3.42;;;;;;;37.54;28.89;101975.88;5056994;28;20024;-69
2023/09/07 10:05:53;;;;;;;6.15;3.40;;;;;;;36.43;30.00;101982.97;5057475;28;20020;-69
2023/09/07 10:08:22;;;;;;;5.78;3.10;;;;;;;36.17;30.40;101979.13;5069209;28;20039;-68
2023/09/07 10:10:53;;;;;;;10.90;3.30;;;;;;;37.12;29.51;101972.16;5058057;28;20024;-69
2023/09/07 10:13:33;;;;;;;5.28;3.38;;;;;;;36.15;30.04;101974.88;5065359;28;20036;-69
2023/09/07 10:16:08;;;;;;;4.82;3.47;;;;;;;35.69;30.51;101974.91;5077472;28;20019;-69
2023/09/07 10:18:35;;;;;;;3.70;3.03;;;;;;;36.34;29.78;101963.84;5074760;28;20388;-69
2023/09/07 10:21:02;;;;;;;5.82;3.20;;;;;;;35.75;30.82;101962.56;5051463;28;20459;-70
2023/09/07 10:23:41;;;;;;;5.03;3.22;;;;;;;35.65;30.94;101968.94;5064972;28;20096;-69
2023/09/07 10:26:15;;;;;;;7.57;3.53;;;;;;;36.60;29.30;101963.00;5064164;28;20073;-69
2023/09/07 10:28:42;;;;;;;3.97;3.17;;;;;;;36.58;29.36;101965.03;5062527;28;20039;-69
2023/09/07 10:31:13;;;;;;;6.68;3.05;;;;;;;36.33;29.43;101967.56;5053970;28;21081;-69
2023/09/07 10:33:39;;;;;;;3.65;2.50;;;;;;;36.70;30.10;101962.00;5087326;28;20020;-68
2023/09/07 10:36:05;;;;;;;3.90;2.92;;;;;;;36.30;30.00;101961.53;5070152;28;20084;-69
2023/09/07 10:38:38;;;;;;;4.95;2.72;;;;;;;36.55;29.76;101962.63;5070356;28;20313;-69
2023/09/07 10:41:05;;;;;;;4.30;3.00;;;;;;;36.38;29.15;101955.34;5066304;28;20028;-69
2023/09/07 10:43:32;;;;;;;5.10;2.60;;;;;;;36.91;29.13;101954.34;5058041;28;20471;-70
2023/09/07 10:45:58;;;;;;;4.07;2.70;;;;;;;36.77;29.38;101958.50;5069085;28;20094;-69
2023/09/07 10:48:25;;;;;;;3.85;2.60;;;;;;;36.52;29.21;101949.34;5068340;28;20028;-69
2023/09/07 10:50:51;;;;;;;4.05;2.55;;;;;;;36.41;29.44;101946.88;5071689;28;20073;-69
2023/09/07 10:53:28;;;;;;;2.65;2.22;;;;;;;36.04;29.21;101961.50;5069405;28;20035;-69
2023/09/07 10:55:56;;;;;;;5.70;2.20;;;;;;;36.76;28.91;101945.03;5051920;28;20447;-69
2023/09/07 10:58:33;;;;;;;3.17;2.00;;;;;;;36.67;28.19;101944.13;5059098;28;20037;-69
2023/09/07 11:00:59;;;;;;;5.10;2.78;;;;;;;36.60;28.44;101949.41;5056394;28;20488;-69
2023/09/07 11:03:26;;;;;;;3.60;2.38;;;;;;;36.30;28.84;101946.09;5054800;28;20047;-69
2023/09/07 11:05:56;;;;;;;3.10;2.20;;;;;;;36.86;28.40;101940.34;5071822;28;20127;-69
2023/09/07 11:08:22;;;;;;;2.50;1.70;;;;;;;36.64;28.30;101941.75;5052282;28;20121;-70
2023/09/07 11:10:50;;;;;;;2.80;2.25;;;;;;;36.80;28.35;101943.75;5068962;28;20028;-69
2023/09/07 11:13:16;;;;;;;2.70;2.00;;;;;;;37.34;27.14;101944.34;5077578;28;20032;-70
2023/09/07 11:15:42;;;;;;;4.50;2.20;;;;;;;36.29;28.26;101938.94;5071861;28;20032;-68
2023/09/07 11:18:08;;;;;;;4.03;2.05;;;;;;;36.86;28.02;101940.34;5070819;28;20031;-69